sensor_id;sensor_type;location;lat;lon;timestamp;pressure;altitude;pressure_sealevel;temperature;humidity
75640;BME280;64233;51.486;6.332;2023-06-24T00:02:07;102195.03;;;15.74;100.00
75640;BME280;64233;51.486;6.332;2023-06-24T00:04:32;102196.34;;;15.71;100.00
75640;BME280;64233;51.486;6.332;2023-06-24T00:06:59;102194.78;;;15.75;100.00
75640;BME280;64233;51.486;6.332;2023-06-24T00:09:28;102201.44;;;15.67;100.00
75640;BME280;64233;51.486;6.332;2023-06-24T00:11:54;102201.28;;;15.57;100.00
75640;BME280;64233;51.486;6.332;2023-06-24T00:14:20;102205.00;;;15.51;100.00
75640;BME280;64233;51.486;6.332;2023-06-24T00:16:47;102199.00;;;15.49;100.00
75640;BME280;64233;51.486;6.332;2023-06-24T00:19:18;102194.34;;;15.44;100.00
75640;BME280;64233;51.486;6.332;2023-06-24T00:21:43;102198.97;;;15.44;100.00
75640;BME280;64233;51.486;6.332;2023-06-24T00:24:09;102203.28;;;15.45;100.00
75640;BME280;64233;51.486;6.332;2023-06-24T00:26:34;102203.44;;;15.55;100.00
75640;BME280;64233;51.486;6.332;2023-06-24T00:29:00;102204.81;;;15.58;100.00
75640;BME280;64233;51.486;6.332;2023-06-24T00:31:25;102202.25;;;15.68;100.00
75640;BME280;64233;51.486;6.332;2023-06-24T00:33:50;102204.97;;;15.68;100.00
75640;BME280;64233;51.486;6.332;2023-06-24T00:36:17;102208.22;;;15.70;100.00
75640;BME280;64233;51.486;6.332;2023-06-24T00:38:42;102209.88;;;15.71;100.00
75640;BME280;64233;51.486;6.332;2023-06-24T00:41:08;102198.78;;;15.73;100.00
75640;BME280;64233;51.486;6.332;2023-06-24T00:43:34;102190.69;;;15.73;100.00
75640;BME280;64233;51.486;6.332;2023-06-24T00:46:00;102192.81;;;15.71;100.00
75640;BME280;64233;51.486;6.332;2023-06-24T00:48:25;102198.72;;;15.67;100.00
75640;BME280;64233;51.486;6.332;2023-06-24T00:50:51;102200.88;;;15.65;100.00
75640;BME280;64233;51.486;6.332;2023-06-24T00:53:17;102197.03;;;15.61;100.00
75640;BME280;64233;51.486;6.332;2023-06-24T00:55:43;102197.28;;;15.60;100.00
75640;BME280;64233;51.486;6.332;2023-06-24T00:58:10;102192.13;;;15.58;100.00
75640;BME280;64233;51.486;6.332;2023-06-24T01:00:36;102195.97;;;15.62;100.00
75640;BME280;64233;51.486;6.332;2023-06-24T01:03:02;102192.25;;;15.69;100.00
75640;BME280;64233;51.486;6.332;2023-06-24T01:05:28;102195.28;;;15.72;100.00
75640;BME280;64233;51.486;6.332;2023-06-24T01:08:00;102200.53;;;15.79;100.00
75640;BME280;64233;51.486;6.332;2023-06-24T01:10:31;102197.81;;;15.79;100.00
75640;BME280;64233;51.486;6.332;2023-06-24T01:12:57;102197.22;;;15.77;100.00
75640;BME280;64233;51.486;6.332;2023-06-24T01:15:22;102198.53;;;15.74;100.00
75640;BME280;64233;51.486;6.332;2023-06-24T01:18:29;102196.91;;;15.73;100.00
75640;BME280;64233;51.486;6.332;2023-06-24T01:27:03;102194.19;;;15.73;100.00
75640;BME280;64233;51.486;6.332;2023-06-24T01:29:47;102192.56;;;15.72;100.00
75640;BME280;64233;51.486;6.332;2023-06-24T01:32:26;102188.66;;;15.63;100.00
75640;BME280;64233;51.486;6.332;2023-06-24T01:35:04;102190.72;;;15.56;100.00
75640;BME280;64233;51.486;6.332;2023-06-24T01:37:36;102179.50;;;15.47;100.00
75640;BME280;64233;51.486;6.332;2023-06-24T01:43:08;102177.63;;;15.47;100.00
75640;BME280;64233;51.486;6.332;2023-06-24T01:45:40;102174.34;;;15.45;100.00
75640;BME280;64233;51.486;6.332;2023-06-24T01:48:15;102173.25;;;15.46;100.00
75640;BME280;64233;51.486;6.332;2023-06-24T01:50:48;102170.34;;;15.48;100.00
75640;BME280;64233;51.486;6.332;2023-06-24T01:53:17;102169.25;;;15.49;100.00
75640;BME280;64233;51.486;6.332;2023-06-24T01:55:45;102171.44;;;15.52;100.00
75640;BME280;64233;51.486;6.332;2023-06-24T01:58:12;102175.78;;;15.53;100.00
75640;BME280;64233;51.486;6.332;2023-06-24T02:00:39;102175.78;;;15.53;100.00
75640;BME280;64233;51.486;6.332;2023-06-24T02:03:06;102178.25;;;15.55;100.00
75640;BME280;64233;51.486;6.332;2023-06-24T02:05:33;102184.16;;;15.52;100.00
75640;BME280;64233;51.486;6.332;2023-06-24T02:07:59;102178.38;;;15.43;100.00
75640;BME280;64233;51.486;6.332;2023-06-24T02:10:27;102168.78;;;15.35;100.00
75640;BME280;64233;51.486;6.332;2023-06-24T02:12:53;102178.72;;;15.29;100.00
75640;BME280;64233;51.486;6.332;2023-06-24T02:15:20;102168.88;;;15.23;100.00
75640;BME280;64233;51.486;6.332;2023-06-24T02:17:49;102169.38;;;15.20;100.00
75640;BME280;64233;51.486;6.332;2023-06-24T02:20:16;102162.09;;;15.21;100.00
75640;BME280;64233;51.486;6.332;2023-06-24T02:22:43;102162.34;;;15.19;100.00
75640;BME280;64233;51.486;6.332;2023-06-24T02:25:09;102158.31;;;15.22;100.00
75640;BME280;64233;51.486;6.332;2023-06-24T02:27:41;102166.44;;;15.22;100.00
75640;BME280;64233;51.486;6.332;2023-06-24T02:30:08;102171.09;;;15.26;100.00
75640;BME280;64233;51.486;6.332;2023-06-24T02:32:34;102174.06;;;15.25;100.00
75640;BME280;64233;51.486;6.332;2023-06-24T02:35:01;102166.09;;;15.18;100.00
75640;BME280;64233;51.486;6.332;2023-06-24T02:37:26;102161.59;;;15.24;100.00
75640;BME280;64233;51.486;6.332;2023-06-24T02:39:51;102162.69;;;15.23;100.00
75640;BME280;64233;51.486;6.332;2023-06-24T02:42:17;102166.69;;;15.20;100.00
75640;BME280;64233;51.486;6.332;2023-06-24T02:44:42;102172.84;;;15.15;100.00
75640;BME280;64233;51.486;6.332;2023-06-24T02:47:15;102170.81;;;15.06;100.00
75640;BME280;64233;51.486;6.332;2023-06-24T02:49:42;102171.47;;;14.96;100.00
75640;BME280;64233;51.486;6.332;2023-06-24T02:52:12;102178.97;;;14.94;100.00
75640;BME280;64233;51.486;6.332;2023-06-24T02:54:38;102182.34;;;14.84;100.00
75640;BME280;64233;51.486;6.332;2023-06-24T02:57:05;102184.13;;;14.78;100.00
75640;BME280;64233;51.486;6.332;2023-06-24T02:59:32;102185.28;;;14.83;100.00
75640;BME280;64233;51.486;6.332;2023-06-24T03:01:57;102187.72;;;14.67;100.00
75640;BME280;64233;51.486;6.332;2023-06-24T03:04:23;102186.09;;;14.66;100.00
75640;BME280;64233;51.486;6.332;2023-06-24T03:06:50;102177.88;;;14.61;100.00
75640;BME280;64233;51.486;6.332;2023-06-24T03:09:18;102170.25;;;14.58;100.00
75640;BME280;64233;51.486;6.332;2023-06-24T03:11:44;102173.34;;;14.50;100.00
75640;BME280;64233;51.486;6.332;2023-06-24T03:14:10;102169.00;;;14.49;100.00
75640;BME280;64233;51.486;6.332;2023-06-24T03:16:42;102173.94;;;14.52;100.00
75640;BME280;64233;51.486;6.332;2023-06-24T03:19:07;102161.75;;;14.49;100.00
75640;BME280;64233;51.486;6.332;2023-06-24T03:21:33;102169.66;;;14.56;100.00
75640;BME280;64233;51.486;6.332;2023-06-24T03:23:58;102172.97;;;14.58;100.00
75640;BME280;64233;51.486;6.332;2023-06-24T03:26:31;102175.88;;;14.68;100.00
75640;BME280;64233;51.486;6.332;2023-06-24T03:28:57;102180.22;;;14.69;100.00
75640;BME280;64233;51.486;6.332;2023-06-24T03:31:22;102187.72;;;14.67;100.00
75640;BME280;64233;51.486;6.332;2023-06-24T03:33:48;102183.16;;;14.68;100.00
75640;BME280;64233;51.486;6.332;2023-06-24T03:36:14;102182.66;;;14.71;100.00
75640;BME280;64233;51.486;6.332;2023-06-24T03:38:39;102187.59;;;14.74;100.00
75640;BME280;64233;51.486;6.332;2023-06-24T03:41:04;102192.75;;;14.75;100.00
75640;BME280;64233;51.486;6.332;2023-06-24T03:43:29;102192.03;;;14.80;100.00
75640;BME280;64233;51.486;6.332;2023-06-24T03:45:55;102190.13;;;14.80;100.00
75640;BME280;64233;51.486;6.332;2023-06-24T03:48:20;102187.44;;;14.80;100.00
75640;BME280;64233;51.486;6.332;2023-06-24T03:50:45;102184.22;;;14.84;100.00
75640;BME280;64233;51.486;6.332;2023-06-24T03:53:11;102182.44;;;14.89;100.00
75640;BME280;64233;51.486;6.332;2023-06-24T03:55:36;102183.03;;;14.91;100.00
75640;BME280;64233;51.486;6.332;2023-06-24T03:58:01;102186.78;;;14.90;100.00
75640;BME280;64233;51.486;6.332;2023-06-24T04:00:27;102198.75;;;14.94;100.00
75640;BME280;64233;51.486;6.332;2023-06-24T04:02:52;102188.84;;;15.00;100.00
75640;BME280;64233;51.486;6.332;2023-06-24T04:05:19;102183.22;;;15.07;100.00
75640;BME280;64233;51.486;6.332;2023-06-24T04:07:45;102188.72;;;15.12;100.00
75640;BME280;64233;51.486;6.332;2023-06-24T04:10:12;102193.59;;;15.10;100.00
75640;BME280;64233;51.486;6.332;2023-06-24T04:12:38;102190.63;;;15.11;100.00
75640;BME280;64233;51.486;6.332;2023-06-24T04:15:04;102208.41;;;15.07;100.00
75640;BME280;64233;51.486;6.332;2023-06-24T04:17:30;102210.47;;;15.00;100.00
75640;BME280;64233;51.486;6.332;2023-06-24T04:19:55;102207.16;;;15.15;100.00
75640;BME280;64233;51.486;6.332;2023-06-24T04:22:20;102204.84;;;15.41;100.00
75640;BME280;64233;51.486;6.332;2023-06-24T04:24:46;102204.84;;;15.41;100.00
75640;BME280;64233;51.486;6.332;2023-06-24T04:27:11;102198.78;;;15.33;100.00
75640;BME280;64233;51.486;6.332;2023-06-24T04:29:36;102204.09;;;15.84;100.00
75640;BME280;64233;51.486;6.332;2023-06-24T04:32:02;102204.22;;;16.17;100.00
75640;BME280;64233;51.486;6.332;2023-06-24T04:34:27;102204.66;;;16.09;100.00
75640;BME280;64233;51.486;6.332;2023-06-24T04:36:52;102196.16;;;15.78;100.00
75640;BME280;64233;51.486;6.332;2023-06-24T04:39:18;102188.22;;;15.71;100.00
75640;BME280;64233;51.486;6.332;2023-06-24T04:41:43;102195.09;;;15.79;100.00
75640;BME280;64233;51.486;6.332;2023-06-24T04:44:08;102202.59;;;16.16;100.00
75640;BME280;64233;51.486;6.332;2023-06-24T04:46:34;102190.66;;;16.39;100.00
75640;BME280;64233;51.486;6.332;2023-06-24T04:48:59;102187.06;;;16.61;100.00
75640;BME280;64233;51.486;6.332;2023-06-24T04:51:25;102184.69;;;16.69;100.00
75640;BME280;64233;51.486;6.332;2023-06-24T04:53:50;102189.19;;;16.86;100.00
75640;BME280;64233;51.486;6.332;2023-06-24T04:56:15;102192.84;;;17.02;100.00
75640;BME280;64233;51.486;6.332;2023-06-24T04:58:41;102186.94;;;17.10;100.00
75640;BME280;64233;51.486;6.332;2023-06-24T05:01:06;102191.72;;;16.93;100.00
75640;BME280;64233;51.486;6.332;2023-06-24T05:03:31;102187.75;;;17.11;100.00
75640;BME280;64233;51.486;6.332;2023-06-24T05:05:56;102180.72;;;17.15;100.00
75640;BME280;64233;51.486;6.332;2023-06-24T05:08:22;102183.22;;;17.21;100.00
75640;BME280;64233;51.486;6.332;2023-06-24T05:10:47;102182.16;;;17.28;100.00
75640;BME280;64233;51.486;6.332;2023-06-24T05:13:13;102188.59;;;17.59;100.00
75640;BME280;64233;51.486;6.332;2023-06-24T05:15:38;102182.69;;;17.72;100.00
75640;BME280;64233;51.486;6.332;2023-06-24T05:18:03;102178.38;;;17.82;100.00
75640;BME280;64233;51.486;6.332;2023-06-24T05:20:28;102177.50;;;17.61;100.00
75640;BME280;64233;51.486;6.332;2023-06-24T05:22:54;102183.41;;;17.58;100.00
75640;BME280;64233;51.486;6.332;2023-06-24T05:25:29;102185.03;;;17.48;100.00
75640;BME280;64233;51.486;6.332;2023-06-24T05:27:54;102185.63;;;17.66;100.00
75640;BME280;64233;51.486;6.332;2023-06-24T05:30:19;102197.63;;;17.75;100.00
75640;BME280;64233;51.486;6.332;2023-06-24T05:32:45;102197.63;;;17.75;100.00
75640;BME280;64233;51.486;6.332;2023-06-24T05:35:10;102207.69;;;17.80;100.00
75640;BME280;64233;51.486;6.332;2023-06-24T05:37:35;102197.47;;;17.92;100.00
75640;BME280;64233;51.486;6.332;2023-06-24T05:40:01;102206.69;;;17.91;100.00
75640;BME280;64233;51.486;6.332;2023-06-24T05:42:27;102208.34;;;17.92;100.00
75640;BME280;64233;51.486;6.332;2023-06-24T05:44:53;102206.19;;;17.99;100.00
75640;BME280;64233;51.486;6.332;2023-06-24T05:47:18;102199.94;;;18.04;100.00
75640;BME280;64233;51.486;6.332;2023-06-24T05:49:43;102198.84;;;18.00;100.00
75640;BME280;64233;51.486;6.332;2023-06-24T05:52:09;102203.19;;;18.01;100.00
75640;BME280;64233;51.486;6.332;2023-06-24T05:54:34;102204.91;;;18.17;100.00
75640;BME280;64233;51.486;6.332;2023-06-24T05:56:59;102202.72;;;18.19;100.00
75640;BME280;64233;51.486;6.332;2023-06-24T05:59:25;102204.66;;;18.50;100.00
75640;BME280;64233;51.486;6.332;2023-06-24T06:01:50;102204.97;;;18.74;100.00
75640;BME280;64233;51.486;6.332;2023-06-24T06:04:15;102186.47;;;18.71;100.00
75640;BME280;64233;51.486;6.332;2023-06-24T06:06:40;102188.16;;;18.92;100.00
75640;BME280;64233;51.486;6.332;2023-06-24T06:09:06;102183.75;;;18.71;100.00
75640;BME280;64233;51.486;6.332;2023-06-24T06:11:31;102191.38;;;18.79;100.00
75640;BME280;64233;51.486;6.332;2023-06-24T06:13:56;102190.31;;;19.06;100.00
75640;BME280;64233;51.486;6.332;2023-06-24T06:16:22;102189.75;;;19.14;100.00
75640;BME280;64233;51.486;6.332;2023-06-24T06:18:47;102183.75;;;19.17;100.00
75640;BME280;64233;51.486;6.332;2023-06-24T06:21:12;102182.91;;;19.27;100.00
75640;BME280;64233;51.486;6.332;2023-06-24T06:23:38;102176.88;;;19.40;100.00
75640;BME280;64233;51.486;6.332;2023-06-24T06:26:03;102177.06;;;19.65;100.00
75640;BME280;64233;51.486;6.332;2023-06-24T06:28:28;102177.41;;;19.58;100.00
75640;BME280;64233;51.486;6.332;2023-06-24T06:30:54;102187.41;;;19.73;100.00
75640;BME280;64233;51.486;6.332;2023-06-24T06:33:19;102185.22;;;19.80;100.00
75640;BME280;64233;51.486;6.332;2023-06-24T06:35:45;102188.44;;;19.92;100.00
75640;BME280;64233;51.486;6.332;2023-06-24T06:38:10;102189.34;;;19.67;100.00
75640;BME280;64233;51.486;6.332;2023-06-24T06:40:35;102186.28;;;19.84;100.00
75640;BME280;64233;51.486;6.332;2023-06-24T06:43:01;102192.44;;;20.10;100.00
75640;BME280;64233;51.486;6.332;2023-06-24T06:45:26;102193.25;;;20.11;100.00
75640;BME280;64233;51.486;6.332;2023-06-24T06:47:51;102195.88;;;20.32;100.00
75640;BME280;64233;51.486;6.332;2023-06-24T06:50:17;102188.13;;;20.44;100.00
75640;BME280;64233;51.486;6.332;2023-06-24T06:52:42;102197.44;;;20.43;100.00
75640;BME280;64233;51.486;6.332;2023-06-24T06:55:08;102196.81;;;20.51;100.00
75640;BME280;64233;51.486;6.332;2023-06-24T06:57:33;102193.28;;;20.51;100.00
75640;BME280;64233;51.486;6.332;2023-06-24T06:59:58;102200.66;;;20.50;100.00
75640;BME280;64233;51.486;6.332;2023-06-24T07:02:24;102202.38;;;20.36;100.00
75640;BME280;64233;51.486;6.332;2023-06-24T07:04:49;102205.91;;;20.41;100.00
75640;BME280;64233;51.486;6.332;2023-06-24T07:07:16;102207.16;;;20.54;100.00
75640;BME280;64233;51.486;6.332;2023-06-24T07:09:41;102202.13;;;20.32;100.00
75640;BME280;64233;51.486;6.332;2023-06-24T07:12:07;102211.00;;;20.48;100.00
75640;BME280;64233;51.486;6.332;2023-06-24T07:14:32;102206.81;;;20.61;100.00
75640;BME280;64233;51.486;6.332;2023-06-24T07:16:57;102205.22;;;20.60;100.00
75640;BME280;64233;51.486;6.332;2023-06-24T07:19:23;102208.56;;;20.86;100.00
75640;BME280;64233;51.486;6.332;2023-06-24T07:21:48;102214.16;;;20.71;100.00
75640;BME280;64233;51.486;6.332;2023-06-24T07:24:13;102215.78;;;20.72;100.00
75640;BME280;64233;51.486;6.332;2023-06-24T07:26:39;102210.91;;;20.63;100.00
75640;BME280;64233;51.486;6.332;2023-06-24T07:29:07;102213.63;;;20.69;100.00
75640;BME280;64233;51.486;6.332;2023-06-24T07:31:33;102214.09;;;20.81;100.00
75640;BME280;64233;51.486;6.332;2023-06-24T07:33:59;102219.97;;;20.93;100.00
75640;BME280;64233;51.486;6.332;2023-06-24T07:36:24;102223.16;;;21.06;100.00
75640;BME280;64233;51.486;6.332;2023-06-24T07:38:49;102213.50;;;21.13;100.00
75640;BME280;64233;51.486;6.332;2023-06-24T07:41:14;102208.84;;;20.90;100.00
75640;BME280;64233;51.486;6.332;2023-06-24T07:43:40;102221.00;;;21.03;100.00
75640;BME280;64233;51.486;6.332;2023-06-24T07:46:05;102220.72;;;21.04;100.00
75640;BME280;64233;51.486;6.332;2023-06-24T07:48:30;102216.53;;;21.12;100.00
75640;BME280;64233;51.486;6.332;2023-06-24T07:50:57;102209.97;;;21.13;100.00
75640;BME280;64233;51.486;6.332;2023-06-24T07:53:23;102214.22;;;21.24;100.00
75640;BME280;64233;51.486;6.332;2023-06-24T07:55:48;102213.19;;;21.44;100.00
75640;BME280;64233;51.486;6.332;2023-06-24T07:58:13;102214.44;;;21.57;100.00
75640;BME280;64233;51.486;6.332;2023-06-24T08:00:39;102221.03;;;21.56;100.00
75640;BME280;64233;51.486;6.332;2023-06-24T08:03:04;102213.69;;;21.52;100.00
75640;BME280;64233;51.486;6.332;2023-06-24T08:05:29;102216.97;;;21.54;100.00
75640;BME280;64233;51.486;6.332;2023-06-24T08:07:55;102211.31;;;21.45;100.00
75640;BME280;64233;51.486;6.332;2023-06-24T08:10:20;102216.53;;;21.65;100.00
75640;BME280;64233;51.486;6.332;2023-06-24T08:12:45;102210.91;;;21.81;100.00
75640;BME280;64233;51.486;6.332;2023-06-24T08:15:11;102220.31;;;21.94;100.00
75640;BME280;64233;51.486;6.332;2023-06-24T08:17:36;102228.16;;;22.00;100.00
75640;BME280;64233;51.486;6.332;2023-06-24T08:20:02;102218.75;;;22.07;100.00
75640;BME280;64233;51.486;6.332;2023-06-24T08:22:28;102214.78;;;22.18;100.00
75640;BME280;64233;51.486;6.332;2023-06-24T08:24:53;102216.72;;;22.17;100.00
75640;BME280;64233;51.486;6.332;2023-06-24T08:27:19;102213.28;;;22.07;100.00
75640;BME280;64233;51.486;6.332;2023-06-24T08:29:44;102209.47;;;22.08;100.00
75640;BME280;64233;51.486;6.332;2023-06-24T08:32:09;102205.97;;;22.21;100.00
75640;BME280;64233;51.486;6.332;2023-06-24T08:34:34;102207.75;;;22.31;100.00
75640;BME280;64233;51.486;6.332;2023-06-24T08:37:00;102200.38;;;22.31;100.00
75640;BME280;64233;51.486;6.332;2023-06-24T08:39:25;102205.03;;;22.31;100.00
75640;BME280;64233;51.486;6.332;2023-06-24T08:41:51;102202.50;;;22.15;100.00
75640;BME280;64233;51.486;6.332;2023-06-24T08:44:16;102200.91;;;22.33;100.00
75640;BME280;64233;51.486;6.332;2023-06-24T08:46:42;102204.09;;;22.41;100.00
75640;BME280;64233;51.486;6.332;2023-06-24T08:52:04;102200.47;;;22.45;100.00
75640;BME280;64233;51.486;6.332;2023-06-24T08:54:35;102192.41;;;22.54;100.00
75640;BME280;64233;51.486;6.332;2023-06-24T08:57:01;102191.03;;;22.70;100.00
75640;BME280;64233;51.486;6.332;2023-06-24T08:59:30;102187.72;;;22.87;100.00
75640;BME280;64233;51.486;6.332;2023-06-24T09:01:55;102184.94;;;23.07;100.00
75640;BME280;64233;51.486;6.332;2023-06-24T09:04:21;102191.13;;;22.98;100.00
75640;BME280;64233;51.486;6.332;2023-06-24T09:06:46;102187.28;;;22.99;100.00
75640;BME280;64233;51.486;6.332;2023-06-24T09:09:22;102185.53;;;23.03;100.00
75640;BME280;64233;51.486;6.332;2023-06-24T09:11:58;102182.69;;;23.28;100.00
75640;BME280;64233;51.486;6.332;2023-06-24T09:14:24;102180.22;;;23.26;100.00
75640;BME280;64233;51.486;6.332;2023-06-24T09:16:56;102180.09;;;23.17;100.00
75640;BME280;64233;51.486;6.332;2023-06-24T09:19:23;102175.53;;;23.13;100.00
75640;BME280;64233;51.486;6.332;2023-06-24T09:21:49;102171.88;;;23.17;100.00
75640;BME280;64233;51.486;6.332;2023-06-24T09:24:16;102170.88;;;23.27;100.00
75640;BME280;64233;51.486;6.332;2023-06-24T09:26:43;102169.19;;;23.45;100.00
75640;BME280;64233;51.486;6.332;2023-06-24T09:29:12;102161.47;;;23.33;100.00
75640;BME280;64233;51.486;6.332;2023-06-24T09:31:51;102155.88;;;23.38;100.00
75640;BME280;64233;51.486;6.332;2023-06-24T09:34:21;102158.53;;;23.30;100.00
75640;BME280;64233;51.486;6.332;2023-06-24T09:36:52;102166.22;;;23.55;100.00
75640;BME280;64233;51.486;6.332;2023-06-24T09:39:18;102174.25;;;23.38;100.00
75640;BME280;64233;51.486;6.332;2023-06-24T09:41:43;102169.06;;;23.23;100.00
75640;BME280;64233;51.486;6.332;2023-06-24T09:44:16;102165.72;;;23.40;100.00
75640;BME280;64233;51.486;6.332;2023-06-24T09:46:42;102150.56;;;23.70;100.00
75640;BME280;64233;51.486;6.332;2023-06-24T09:49:08;102155.00;;;23.80;100.00
75640;BME280;64233;51.486;6.332;2023-06-24T09:51:39;102155.88;;;23.66;100.00
75640;BME280;64233;51.486;6.332;2023-06-24T09:54:08;102152.97;;;23.85;100.00
75640;BME280;64233;51.486;6.332;2023-06-24T09:56:36;102158.47;;;23.99;100.00
75640;BME280;64233;51.486;6.332;2023-06-24T09:59:05;102156.63;;;24.09;100.00
75640;BME280;64233;51.486;6.332;2023-06-24T10:01:36;102148.31;;;23.86;100.00
75640;BME280;64233;51.486;6.332;2023-06-24T10:04:04;102154.63;;;23.72;100.00
75640;BME280;64233;51.486;6.332;2023-06-24T10:06:31;102140.06;;;24.00;100.00
75640;BME280;64233;51.486;6.332;2023-06-24T10:08:58;102141.75;;;24.10;100.00
75640;BME280;64233;51.486;6.332;2023-06-24T10:11:23;102146.38;;;23.86;100.00
75640;BME280;64233;51.486;6.332;2023-06-24T10:13:48;102140.34;;;24.12;100.00
75640;BME280;64233;51.486;6.332;2023-06-24T10:16:15;102145.88;;;24.21;100.00
75640;BME280;64233;51.486;6.332;2023-06-24T10:18:40;102139.47;;;24.26;97.49
75640;BME280;64233;51.486;6.332;2023-06-24T10:21:08;102142.59;;;24.55;100.00
75640;BME280;64233;51.486;6.332;2023-06-24T10:23:42;102137.09;;;24.78;100.00
75640;BME280;64233;51.486;6.332;2023-06-24T10:36:53;102125.00;;;24.34;100.00
75640;BME280;64233;51.486;6.332;2023-06-24T10:39:47;102122.94;;;24.39;100.00
75640;BME280;64233;51.486;6.332;2023-06-24T10:47:40;102122.38;;;24.51;100.00
75640;BME280;64233;51.486;6.332;2023-06-24T10:50:06;102116.22;;;24.46;100.00
75640;BME280;64233;51.486;6.332;2023-06-24T10:52:34;102118.00;;;24.50;100.00
75640;BME280;64233;51.486;6.332;2023-06-24T10:55:02;102116.66;;;24.62;75.17
75640;BME280;64233;51.486;6.332;2023-06-24T10:57:28;102117.00;;;24.69;86.95
75640;BME280;64233;51.486;6.332;2023-06-24T10:59:55;102117.56;;;24.80;88.73
75640;BME280;64233;51.486;6.332;2023-06-24T11:02:22;102120.09;;;25.07;81.96
75640;BME280;64233;51.486;6.332;2023-06-24T11:04:56;102107.53;;;25.24;97.80
75640;BME280;64233;51.486;6.332;2023-06-24T11:07:24;102106.66;;;25.46;100.00
75640;BME280;64233;51.486;6.332;2023-06-24T11:09:56;102107.47;;;25.38;100.00
75640;BME280;64233;51.486;6.332;2023-06-24T11:12:26;102110.84;;;25.35;100.00
75640;BME280;64233;51.486;6.332;2023-06-24T11:14:56;102104.41;;;25.48;85.25
75640;BME280;64233;51.486;6.332;2023-06-24T11:17:22;102111.06;;;25.65;97.29
75640;BME280;64233;51.486;6.332;2023-06-24T11:19:47;102106.59;;;25.29;100.00
75640;BME280;64233;51.486;6.332;2023-06-24T11:22:13;102103.91;;;25.46;90.46
75640;BME280;64233;51.486;6.332;2023-06-24T11:24:38;102102.50;;;25.17;93.10
75640;BME280;64233;51.486;6.332;2023-06-24T11:27:05;102102.50;;;25.17;100.00
75640;BME280;64233;51.486;6.332;2023-06-24T11:29:31;102092.50;;;25.21;100.00
75640;BME280;64233;51.486;6.332;2023-06-24T11:31:57;102099.22;;;25.38;93.11
75640;BME280;64233;51.486;6.332;2023-06-24T11:34:22;102090.47;;;25.36;100.00
75640;BME280;64233;51.486;6.332;2023-06-24T11:36:48;102085.91;;;25.31;69.90
75640;BME280;64233;51.486;6.332;2023-06-24T11:39:21;102081.09;;;25.37;100.00
75640;BME280;64233;51.486;6.332;2023-06-24T11:41:47;102077.09;;;25.60;96.75
75640;BME280;64233;51.486;6.332;2023-06-24T11:44:12;102085.00;;;25.80;94.29
75640;BME280;64233;51.486;6.332;2023-06-24T11:46:37;102086.00;;;26.01;88.20
75640;BME280;64233;51.486;6.332;2023-06-24T11:49:04;102086.78;;;25.84;88.62
75640;BME280;64233;51.486;6.332;2023-06-24T11:51:30;102089.38;;;25.81;87.15
75640;BME280;64233;51.486;6.332;2023-06-24T11:53:59;102081.94;;;25.55;94.99
75640;BME280;64233;51.486;6.332;2023-06-24T11:56:35;102075.81;;;25.09;86.65
75640;BME280;64233;51.486;6.332;2023-06-24T11:59:03;102076.56;;;25.32;79.95
75640;BME280;64233;51.486;6.332;2023-06-24T12:01:33;102071.69;;;25.29;97.19
75640;BME280;64233;51.486;6.332;2023-06-24T12:04:02;102071.22;;;25.36;93.13
75640;BME280;64233;51.486;6.332;2023-06-24T12:06:34;102076.69;;;25.27;88.88
75640;BME280;64233;51.486;6.332;2023-06-24T12:08:59;102073.38;;;25.74;84.61
75640;BME280;64233;51.486;6.332;2023-06-24T12:11:24;102068.19;;;25.81;66.32
75640;BME280;64233;51.486;6.332;2023-06-24T12:13:50;102064.63;;;25.98;78.36
75640;BME280;64233;51.486;6.332;2023-06-24T12:16:15;102065.72;;;26.32;74.62
75640;BME280;64233;51.486;6.332;2023-06-24T12:18:40;102071.25;;;26.23;87.15
75640;BME280;64233;51.486;6.332;2023-06-24T12:21:06;102066.13;;;26.04;70.68
75640;BME280;64233;51.486;6.332;2023-06-24T12:23:32;102066.44;;;26.11;53.03
75640;BME280;64233;51.486;6.332;2023-06-24T12:25:57;102063.03;;;26.15;58.36
75640;BME280;64233;51.486;6.332;2023-06-24T12:28:22;102058.66;;;25.70;52.03
75640;BME280;64233;51.486;6.332;2023-06-24T12:30:48;102055.09;;;25.52;60.00
75640;BME280;64233;51.486;6.332;2023-06-24T12:33:13;102056.06;;;25.73;78.42
75640;BME280;64233;51.486;6.332;2023-06-24T12:35:38;102054.75;;;25.88;71.94
75640;BME280;64233;51.486;6.332;2023-06-24T12:38:04;102051.69;;;25.90;65.81
75640;BME280;64233;51.486;6.332;2023-06-24T12:40:29;102056.38;;;26.07;83.94
75640;BME280;64233;51.486;6.332;2023-06-24T12:42:54;102049.59;;;26.13;83.11
75640;BME280;64233;51.486;6.332;2023-06-24T12:45:20;102038.72;;;26.25;88.55
75640;BME280;64233;51.486;6.332;2023-06-24T12:47:46;102046.66;;;26.09;75.93
75640;BME280;64233;51.486;6.332;2023-06-24T12:50:11;102048.47;;;26.14;78.69
75640;BME280;64233;51.486;6.332;2023-06-24T12:52:37;102039.63;;;26.47;76.97
75640;BME280;64233;51.486;6.332;2023-06-24T12:55:02;102041.41;;;26.90;78.46
75640;BME280;64233;51.486;6.332;2023-06-24T12:57:29;102041.94;;;27.13;71.82
75640;BME280;64233;51.486;6.332;2023-06-24T12:59:54;102036.78;;;27.03;76.65
75640;BME280;64233;51.486;6.332;2023-06-24T13:02:19;102036.28;;;26.33;60.90
75640;BME280;64233;51.486;6.332;2023-06-24T13:04:45;102035.28;;;26.37;75.17
75640;BME280;64233;51.486;6.332;2023-06-24T13:07:12;102033.09;;;26.60;69.44